sensor_id;sensor_type;location;lat;lon;timestamp;temperature;humidity
14786;DHT22;7484;49.906;9.058;2023-03-13T00:00:23;9.80;99.90
14786;DHT22;7484;49.906;9.058;2023-03-13T00:02:51;9.80;99.90
14786;DHT22;7484;49.906;9.058;2023-03-13T00:05:18;9.80;99.90
14786;DHT22;7484;49.906;9.058;2023-03-13T00:07:45;9.80;99.90
14786;DHT22;7484;49.906;9.058;2023-03-13T00:10:11;9.70;99.90
14786;DHT22;7484;49.906;9.058;2023-03-13T00:12:38;9.70;99.90
14786;DHT22;7484;49.906;9.058;2023-03-13T00:15:05;9.70;99.90
14786;DHT22;7484;49.906;9.058;2023-03-13T00:17:32;9.80;99.90
14786;DHT22;7484;49.906;9.058;2023-03-13T00:20:00;9.90;99.90
14786;DHT22;7484;49.906;9.058;2023-03-13T00:22:27;9.90;99.90
14786;DHT22;7484;49.906;9.058;2023-03-13T00:24:54;10.00;99.90
14786;DHT22;7484;49.906;9.058;2023-03-13T00:27:20;10.10;99.90
14786;DHT22;7484;49.906;9.058;2023-03-13T00:29:48;10.20;99.90
14786;DHT22;7484;49.906;9.058;2023-03-13T00:32:15;10.20;99.90
14786;DHT22;7484;49.906;9.058;2023-03-13T00:34:41;10.30;99.90
14786;DHT22;7484;49.906;9.058;2023-03-13T00:37:09;10.30;99.90
14786;DHT22;7484;49.906;9.058;2023-03-13T00:39:36;10.30;99.90
14786;DHT22;7484;49.906;9.058;2023-03-13T00:42:03;10.30;99.90
14786;DHT22;7484;49.906;9.058;2023-03-13T00:44:30;10.20;99.90
14786;DHT22;7484;49.906;9.058;2023-03-13T00:46:57;10.20;99.90
14786;DHT22;7484;49.906;9.058;2023-03-13T00:49:24;10.20;99.90
14786;DHT22;7484;49.906;9.058;2023-03-13T00:51:50;10.20;99.90
14786;DHT22;7484;49.906;9.058;2023-03-13T00:54:18;10.20;99.90
14786;DHT22;7484;49.906;9.058;2023-03-13T00:56:45;10.20;99.90
14786;DHT22;7484;49.906;9.058;2023-03-13T00:59:13;10.20;99.90
14786;DHT22;7484;49.906;9.058;2023-03-13T01:01:40;10.30;99.90
14786;DHT22;7484;49.906;9.058;2023-03-13T01:04:11;10.30;99.90
14786;DHT22;7484;49.906;9.058;2023-03-13T01:06:39;10.30;99.90
14786;DHT22;7484;49.906;9.058;2023-03-13T01:09:09;10.40;99.90
14786;DHT22;7484;49.906;9.058;2023-03-13T01:11:40;10.40;99.90
14786;DHT22;7484;49.906;9.058;2023-03-13T01:14:10;10.40;99.90
14786;DHT22;7484;49.906;9.058;2023-03-13T01:16:37;10.40;99.90
14786;DHT22;7484;49.906;9.058;2023-03-13T01:19:07;10.30;99.90
14786;DHT22;7484;49.906;9.058;2023-03-13T01:21:35;10.30;99.90
14786;DHT22;7484;49.906;9.058;2023-03-13T01:24:02;10.30;99.90
14786;DHT22;7484;49.906;9.058;2023-03-13T01:26:30;10.30;99.90
14786;DHT22;7484;49.906;9.058;2023-03-13T01:28:59;10.20;99.90
14786;DHT22;7484;49.906;9.058;2023-03-13T01:31:28;10.20;99.90
14786;DHT22;7484;49.906;9.058;2023-03-13T01:33:57;10.30;99.90
14786;DHT22;7484;49.906;9.058;2023-03-13T01:36:26;10.40;99.90
14786;DHT22;7484;49.906;9.058;2023-03-13T01:38:54;10.50;99.90
14786;DHT22;7484;49.906;9.058;2023-03-13T01:41:22;10.40;99.90
14786;DHT22;7484;49.906;9.058;2023-03-13T01:43:49;10.50;99.90
14786;DHT22;7484;49.906;9.058;2023-03-13T01:46:19;10.50;99.90
14786;DHT22;7484;49.906;9.058;2023-03-13T01:49:07;10.40;99.90
14786;DHT22;7484;49.906;9.058;2023-03-13T01:51:44;10.40;99.90
14786;DHT22;7484;49.906;9.058;2023-03-13T01:54:15;10.50;99.90
14786;DHT22;7484;49.906;9.058;2023-03-13T01:56:47;10.50;99.90
14786;DHT22;7484;49.906;9.058;2023-03-13T01:59:18;10.50;99.90
14786;DHT22;7484;49.906;9.058;2023-03-13T02:01:48;10.60;99.90
14786;DHT22;7484;49.906;9.058;2023-03-13T02:04:18;10.60;99.90
14786;DHT22;7484;49.906;9.058;2023-03-13T02:06:48;10.70;99.90
14786;DHT22;7484;49.906;9.058;2023-03-13T02:09:18;10.70;99.90
14786;DHT22;7484;49.906;9.058;2023-03-13T02:11:48;10.80;99.90
14786;DHT22;7484;49.906;9.058;2023-03-13T02:14:18;10.90;99.90
14786;DHT22;7484;49.906;9.058;2023-03-13T02:16:47;10.90;99.90
14786;DHT22;7484;49.906;9.058;2023-03-13T02:19:18;10.90;99.90
14786;DHT22;7484;49.906;9.058;2023-03-13T02:21:49;10.80;99.90
14786;DHT22;7484;49.906;9.058;2023-03-13T02:24:25;10.90;99.90
14786;DHT22;7484;49.906;9.058;2023-03-13T02:26:55;10.90;99.90
14786;DHT22;7484;49.906;9.058;2023-03-13T02:29:24;10.90;99.90
14786;DHT22;7484;49.906;9.058;2023-03-13T02:31:51;10.90;99.90
14786;DHT22;7484;49.906;9.058;2023-03-13T02:34:21;10.90;99.90
14786;DHT22;7484;49.906;9.058;2023-03-13T02:36:50;11.00;99.90
14786;DHT22;7484;49.906;9.058;2023-03-13T02:39:19;10.90;99.90
14786;DHT22;7484;49.906;9.058;2023-03-13T02:41:47;10.90;99.90
14786;DHT22;7484;49.906;9.058;2023-03-13T02:44:15;10.90;99.90
14786;DHT22;7484;49.906;9.058;2023-03-13T02:46:44;10.90;99.90
14786;DHT22;7484;49.906;9.058;2023-03-13T02:49:21;10.80;99.90
14786;DHT22;7484;49.906;9.058;2023-03-13T02:51:49;10.80;99.90
14786;DHT22;7484;49.906;9.058;2023-03-13T02:54:20;10.80;99.90
14786;DHT22;7484;49.906;9.058;2023-03-13T02:56:51;10.70;99.90
14786;DHT22;7484;49.906;9.058;2023-03-13T02:59:19;10.60;99.90
14786;DHT22;7484;49.906;9.058;2023-03-13T03:01:47;10.50;99.90
14786;DHT22;7484;49.906;9.058;2023-03-13T03:04:17;10.40;99.90
14786;DHT22;7484;49.906;9.058;2023-03-13T03:06:44;10.30;99.90
14786;DHT22;7484;49.906;9.058;2023-03-13T03:09:11;10.20;99.90
14786;DHT22;7484;49.906;9.058;2023-03-13T03:11:38;10.10;99.90
14786;DHT22;7484;49.906;9.058;2023-03-13T03:14:10;10.20;99.90
14786;DHT22;7484;49.906;9.058;2023-03-13T03:16:42;10.20;99.90
14786;DHT22;7484;49.906;9.058;2023-03-13T03:19:09;10.20;99.90
14786;DHT22;7484;49.906;9.058;2023-03-13T03:21:36;10.30;99.90
14786;DHT22;7484;49.906;9.058;2023-03-13T03:24:04;10.30;99.90
14786;DHT22;7484;49.906;9.058;2023-03-13T03:26:31;10.20;99.90
14786;DHT22;7484;49.906;9.058;2023-03-13T03:28:58;10.20;99.90
14786;DHT22;7484;49.906;9.058;2023-03-13T03:31:25;10.20;99.90
14786;DHT22;7484;49.906;9.058;2023-03-13T03:33:55;10.10;99.90
14786;DHT22;7484;49.906;9.058;2023-03-13T03:36:22;10.10;99.90
14786;DHT22;7484;49.906;9.058;2023-03-13T03:38:50;10.10;99.90
14786;DHT22;7484;49.906;9.058;2023-03-13T03:41:20;10.00;99.90
14786;DHT22;7484;49.906;9.058;2023-03-13T03:43:47;10.10;99.90
14786;DHT22;7484;49.906;9.058;2023-03-13T03:46:17;10.00;99.90
14786;DHT22;7484;49.906;9.058;2023-03-13T03:48:44;10.00;99.90
14786;DHT22;7484;49.906;9.058;2023-03-13T03:51:13;10.10;99.90
14786;DHT22;7484;49.906;9.058;2023-03-13T03:53:42;10.10;99.90
14786;DHT22;7484;49.906;9.058;2023-03-13T03:56:08;10.10;99.90
14786;DHT22;7484;49.906;9.058;2023-03-13T03:58:40;10.10;99.90
14786;DHT22;7484;49.906;9.058;2023-03-13T04:01:15;10.20;99.90
14786;DHT22;7484;49.906;9.058;2023-03-13T04:03:42;10.20;99.90
14786;DHT22;7484;49.906;9.058;2023-03-13T04:06:10;10.20;99.90
14786;DHT22;7484;49.906;9.058;2023-03-13T04:08:39;10.20;99.90
14786;DHT22;7484;49.906;9.058;2023-03-13T04:11:08;10.20;99.90
14786;DHT22;7484;49.906;9.058;2023-03-13T04:13:37;10.10;99.90
14786;DHT22;7484;49.906;9.058;2023-03-13T04:16:06;10.10;99.90
14786;DHT22;7484;49.906;9.058;2023-03-13T04:18:33;10.10;99.90
14786;DHT22;7484;49.906;9.058;2023-03-13T04:21:00;10.10;99.90
14786;DHT22;7484;49.906;9.058;2023-03-13T04:23:29;10.10;99.90
14786;DHT22;7484;49.906;9.058;2023-03-13T04:25:57;10.00;99.90
14786;DHT22;7484;49.906;9.058;2023-03-13T04:28:23;10.00;99.90
14786;DHT22;7484;49.906;9.058;2023-03-13T04:30:50;10.00;99.90
14786;DHT22;7484;49.906;9.058;2023-03-13T04:33:31;10.00;99.90
14786;DHT22;7484;49.906;9.058;2023-03-13T04:36:25;10.00;99.90
14786;DHT22;7484;49.906;9.058;2023-03-13T04:39:10;10.00;99.90
14786;DHT22;7484;49.906;9.058;2023-03-13T04:42:17;10.00;99.90
14786;DHT22;7484;49.906;9.058;2023-03-13T04:45:03;10.00;99.90
14786;DHT22;7484;49.906;9.058;2023-03-13T04:48:02;10.00;99.90
14786;DHT22;7484;49.906;9.058;2023-03-13T04:50:42;10.10;99.90
14786;DHT22;7484;49.906;9.058;2023-03-13T04:53:22;10.10;99.90
14786;DHT22;7484;49.906;9.058;2023-03-13T04:56:09;10.10;99.90
14786;DHT22;7484;49.906;9.058;2023-03-13T04:58:57;10.10;99.90
14786;DHT22;7484;49.906;9.058;2023-03-13T05:01:43;10.20;99.90
14786;DHT22;7484;49.906;9.058;2023-03-13T05:04:32;10.20;99.90
14786;DHT22;7484;49.906;9.058;2023-03-13T05:07:11;10.20;99.90
14786;DHT22;7484;49.906;9.058;2023-03-13T05:09:55;10.20;99.90
14786;DHT22;7484;49.906;9.058;2023-03-13T05:12:40;10.20;99.90
14786;DHT22;7484;49.906;9.058;2023-03-13T05:15:23;10.20;99.90
14786;DHT22;7484;49.906;9.058;2023-03-13T05:18:09;10.20;99.90
14786;DHT22;7484;49.906;9.058;2023-03-13T05:21:03;10.20;99.90
14786;DHT22;7484;49.906;9.058;2023-03-13T05:23:48;10.30;99.90
14786;DHT22;7484;49.906;9.058;2023-03-13T05:26:41;10.30;99.90
14786;DHT22;7484;49.906;9.058;2023-03-13T05:29:27;10.40;99.90
14786;DHT22;7484;49.906;9.058;2023-03-13T05:32:13;10.50;99.90
14786;DHT22;7484;49.906;9.058;2023-03-13T05:34:59;10.50;99.90
14786;DHT22;7484;49.906;9.058;2023-03-13T05:37:52;10.60;99.90
14786;DHT22;7484;49.906;9.058;2023-03-13T05:40:41;10.60;99.90
14786;DHT22;7484;49.906;9.058;2023-03-13T05:43:34;10.70;99.90
14786;DHT22;7484;49.906;9.058;2023-03-13T05:46:19;10.70;99.90
14786;DHT22;7484;49.906;9.058;2023-03-13T05:48:58;10.80;99.90
14786;DHT22;7484;49.906;9.058;2023-03-13T05:51:41;10.80;99.90
14786;DHT22;7484;49.906;9.058;2023-03-13T05:54:27;10.80;99.90
14786;DHT22;7484;49.906;9.058;2023-03-13T05:57:07;10.90;99.90
14786;DHT22;7484;49.906;9.058;2023-03-13T05:59:41;11.00;99.90
14786;DHT22;7484;49.906;9.058;2023-03-13T06:02:26;11.00;99.90
14786;DHT22;7484;49.906;9.058;2023-03-13T06:04:56;11.00;99.90
14786;DHT22;7484;49.906;9.058;2023-03-13T06:07:23;11.10;99.90
14786;DHT22;7484;49.906;9.058;2023-03-13T06:09:50;11.10;99.90
14786;DHT22;7484;49.906;9.058;2023-03-13T06:12:17;11.10;99.90
14786;DHT22;7484;49.906;9.058;2023-03-13T06:14:44;11.10;99.90
14786;DHT22;7484;49.906;9.058;2023-03-13T06:17:21;11.20;99.90
14786;DHT22;7484;49.906;9.058;2023-03-13T06:19:49;11.10;99.90
14786;DHT22;7484;49.906;9.058;2023-03-13T06:22:17;11.10;99.90
14786;DHT22;7484;49.906;9.058;2023-03-13T06:24:44;11.10;99.90
14786;DHT22;7484;49.906;9.058;2023-03-13T06:27:13;11.10;99.90
14786;DHT22;7484;49.906;9.058;2023-03-13T06:29:40;11.20;99.90
14786;DHT22;7484;49.906;9.058;2023-03-13T06:32:06;11.20;99.90
14786;DHT22;7484;49.906;9.058;2023-03-13T06:34:33;11.20;99.90
14786;DHT22;7484;49.906;9.058;2023-03-13T06:37:00;11.20;99.90
14786;DHT22;7484;49.906;9.058;2023-03-13T06:39:28;11.30;99.90
14786;DHT22;7484;49.906;9.058;2023-03-13T06:41:55;11.30;99.90
14786;DHT22;7484;49.906;9.058;2023-03-13T06:44:21;11.30;99.90
14786;DHT22;7484;49.906;9.058;2023-03-13T06:46:48;11.30;99.90
14786;DHT22;7484;49.906;9.058;2023-03-13T06:49:15;11.40;99.90
14786;DHT22;7484;49.906;9.058;2023-03-13T06:51:42;11.40;99.90
14786;DHT22;7484;49.906;9.058;2023-03-13T06:54:08;11.40;99.90
14786;DHT22;7484;49.906;9.058;2023-03-13T06:56:36;11.40;99.90
14786;DHT22;7484;49.906;9.058;2023-03-13T06:59:03;11.50;99.90
14786;DHT22;7484;49.906;9.058;2023-03-13T07:01:30;11.50;99.90
14786;DHT22;7484;49.906;9.058;2023-03-13T07:03:56;11.60;99.90
14786;DHT22;7484;49.906;9.058;2023-03-13T07:06:23;11.60;99.90
14786;DHT22;7484;49.906;9.058;2023-03-13T07:08:51;11.60;99.90
14786;DHT22;7484;49.906;9.058;2023-03-13T07:11:18;11.60;99.90
14786;DHT22;7484;49.906;9.058;2023-03-13T07:13:46;11.70;99.90
14786;DHT22;7484;49.906;9.058;2023-03-13T07:16:13;11.70;99.90
14786;DHT22;7484;49.906;9.058;2023-03-13T07:18:40;11.80;99.90
14786;DHT22;7484;49.906;9.058;2023-03-13T07:21:09;11.80;99.90
14786;DHT22;7484;49.906;9.058;2023-03-13T07:23:36;11.90;99.90
14786;DHT22;7484;49.906;9.058;2023-03-13T07:26:04;11.90;99.90
14786;DHT22;7484;49.906;9.058;2023-03-13T07:28:32;12.00;99.90
14786;DHT22;7484;49.906;9.058;2023-03-13T07:31:08;12.10;99.90
14786;DHT22;7484;49.906;9.058;2023-03-13T07:33:35;12.10;99.90
14786;DHT22;7484;49.906;9.058;2023-03-13T07:36:03;12.10;99.90
14786;DHT22;7484;49.906;9.058;2023-03-13T07:38:30;12.10;99.90
14786;DHT22;7484;49.906;9.058;2023-03-13T07:40:57;12.20;99.90
14786;DHT22;7484;49.906;9.058;2023-03-13T07:43:24;12.30;99.90
14786;DHT22;7484;49.906;9.058;2023-03-13T07:45:52;12.30;99.90
14786;DHT22;7484;49.906;9.058;2023-03-13T07:48:22;12.30;99.90
14786;DHT22;7484;49.906;9.058;2023-03-13T07:50:49;12.20;99.90
14786;DHT22;7484;49.906;9.058;2023-03-13T07:53:16;12.20;99.90
14786;DHT22;7484;49.906;9.058;2023-03-13T07:55:53;12.20;99.90
14786;DHT22;7484;49.906;9.058;2023-03-13T07:58:21;12.20;99.90
14786;DHT22;7484;49.906;9.058;2023-03-13T08:00:48;12.20;99.90
14786;DHT22;7484;49.906;9.058;2023-03-13T08:03:14;12.30;99.90
14786;DHT22;7484;49.906;9.058;2023-03-13T08:05:43;12.30;99.90
14786;DHT22;7484;49.906;9.058;2023-03-13T08:08:09;12.30;99.90
14786;DHT22;7484;49.906;9.058;2023-03-13T08:10:36;12.30;99.90
14786;DHT22;7484;49.906;9.058;2023-03-13T08:13:03;12.30;99.90
14786;DHT22;7484;49.906;9.058;2023-03-13T08:15:30;12.40;99.90
14786;DHT22;7484;49.906;9.058;2023-03-13T08:17:56;12.40;99.90
14786;DHT22;7484;49.906;9.058;2023-03-13T08:20:23;12.40;99.90
14786;DHT22;7484;49.906;9.058;2023-03-13T08:22:53;12.50;99.90
14786;DHT22;7484;49.906;9.058;2023-03-13T08:25:20;12.50;99.90
14786;DHT22;7484;49.906;9.058;2023-03-13T08:27:47;12.50;99.90
14786;DHT22;7484;49.906;9.058;2023-03-13T08:30:14;12.50;99.90
14786;DHT22;7484;49.906;9.058;2023-03-13T08:32:41;12.50;99.90
14786;DHT22;7484;49.906;9.058;2023-03-13T08:35:08;12.50;99.90
14786;DHT22;7484;49.906;9.058;2023-03-13T08:37:34;12.60;99.90
14786;DHT22;7484;49.906;9.058;2023-03-13T08:40:03;12.60;99.90
14786;DHT22;7484;49.906;9.058;2023-03-13T08:42:36;12.60;99.90
14786;DHT22;7484;49.906;9.058;2023-03-13T08:45:04;12.60;99.90
14786;DHT22;7484;49.906;9.058;2023-03-13T08:47:31;12.60;99.90
14786;DHT22;7484;49.906;9.058;2023-03-13T08:49:57;12.60;99.90
14786;DHT22;7484;49.906;9.058;2023-03-13T08:52:24;12.70;99.90
14786;DHT22;7484;49.906;9.058;2023-03-13T08:54:51;12.70;99.90
14786;DHT22;7484;49.906;9.058;2023-03-13T08:57:19;12.70;99.90
14786;DHT22;7484;49.906;9.058;2023-03-13T08:59:45;12.80;99.90
14786;DHT22;7484;49.906;9.058;2023-03-13T09:02:12;12.80;99.90
14786;DHT22;7484;49.906;9.058;2023-03-13T09:04:44;12.90;99.90
14786;DHT22;7484;49.906;9.058;2023-03-13T09:07:11;12.90;99.90
14786;DHT22;7484;49.906;9.058;2023-03-13T09:09:38;12.90;99.90
14786;DHT22;7484;49.906;9.058;2023-03-13T09:12:05;12.90;99.90
14786;DHT22;7484;49.906;9.058;2023-03-13T09:14:33;13.00;99.90
14786;DHT22;7484;49.906;9.058;2023-03-13T09:17:00;13.00;99.90
14786;DHT22;7484;49.906;9.058;2023-03-13T09:19:27;13.10;99.90
14786;DHT22;7484;49.906;9.058;2023-03-13T09:21:54;13.20;99.90
14786;DHT22;7484;49.906;9.058;2023-03-13T09:24:21;13.20;99.90
14786;DHT22;7484;49.906;9.058;2023-03-13T09:26:47;13.20;99.90
14786;DHT22;7484;49.906;9.058;2023-03-13T09:29:14;13.20;99.90
14786;DHT22;7484;49.906;9.058;2023-03-13T09:31:42;13.30;99.90
14786;DHT22;7484;49.906;9.058;2023-03-13T09:34:09;13.30;99.90
14786;DHT22;7484;49.906;9.058;2023-03-13T09:36:35;13.40;99.90
14786;DHT22;7484;49.906;9.058;2023-03-13T09:39:02;13.50;99.90
14786;DHT22;7484;49.906;9.058;2023-03-13T09:41:34;13.50;99.90
14786;DHT22;7484;49.906;9.058;2023-03-13T09:44:10;13.50;99.90
14786;DHT22;7484;49.906;9.058;2023-03-13T09:46:42;13.60;99.90
14786;DHT22;7484;49.906;9.058;2023-03-13T09:49:15;13.60;99.90
14786;DHT22;7484;49.906;9.058;2023-03-13T09:51:45;13.70;99.90
14786;DHT22;7484;49.906;9.058;2023-03-13T09:54:21;13.70;99.90
14786;DHT22;7484;49.906;9.058;2023-03-13T09:56:52;13.80;99.90
14786;DHT22;7484;49.906;9.058;2023-03-13T09:59:25;13.90;99.90
14786;DHT22;7484;49.906;9.058;2023-03-13T10:01:57;14.00;99.90
14786;DHT22;7484;49.906;9.058;2023-03-13T10:04:31;14.00;99.90
14786;DHT22;7484;49.906;9.058;2023-03-13T10:07:01;14.10;99.90
14786;DHT22;7484;49.906;9.058;2023-03-13T10:09:31;14.10;99.90
14786;DHT22;7484;49.906;9.058;2023-03-13T10:12:06;14.10;99.90
14786;DHT22;7484;49.906;9.058;2023-03-13T10:14:38;14.20;99.90
14786;DHT22;7484;49.906;9.058;2023-03-13T10:17:14;14.20;99.90
14786;DHT22;7484;49.906;9.058;2023-03-13T10:19:46;14.20;99.90
14786;DHT22;7484;49.906;9.058;2023-03-13T10:22:19;14.20;99.90
14786;DHT22;7484;49.906;9.058;2023-03-13T10:24:50;14.20;99.90
14786;DHT22;7484;49.906;9.058;2023-03-13T10:27:18;14.30;99.90
14786;DHT22;7484;49.906;9.058;2023-03-13T10:29:45;14.30;99.90
14786;DHT22;7484;49.906;9.058;2023-03-13T10:32:14;14.40;99.90
14786;DHT22;7484;49.906;9.058;2023-03-13T10:34:52;14.50;99.90
14786;DHT22;7484;49.906;9.058;2023-03-13T10:37:21;14.70;99.90
14786;DHT22;7484;49.906;9.058;2023-03-13T10:39:48;14.70;99.90
14786;DHT22;7484;49.906;9.058;2023-03-13T10:42:22;14.60;99.90
14786;DHT22;7484;49.906;9.058;2023-03-13T10:44:55;14.60;99.90
14786;DHT22;7484;49.906;9.058;2023-03-13T10:47:25;14.60;99.90
14786;DHT22;7484;49.906;9.058;2023-03-13T10:49:55;14.60;99.90
14786;DHT22;7484;49.906;9.058;2023-03-13T10:52:33;14.50;99.90
14786;DHT22;7484;49.906;9.058;2023-03-13T10:55:01;14.50;99.90
14786;DHT22;7484;49.906;9.058;2023-03-13T10:57:31;14.60;99.90
14786;DHT22;7484;49.906;9.058;2023-03-13T10:59:59;14.70;99.90
14786;DHT22;7484;49.906;9.058;2023-03-13T11:02:34;14.90;99.90
14786;DHT22;7484;49.906;9.058;2023-03-13T11:05:31;15.00;99.90
14786;DHT22;7484;49.906;9.058;2023-03-13T11:07:58;14.90;99.90
14786;DHT22;7484;49.906;9.058;2023-03-13T11:10:36;14.90;99.90
14786;DHT22;7484;49.906;9.058;2023-03-13T11:13:03;14.90;99.90
14786;DHT22;7484;49.906;9.058;2023-03-13T11:15:33;15.00;99.90
14786;DHT22;7484;49.906;9.058;2023-03-13T11:18:11;15.10;99.90
14786;DHT22;7484;49.906;9.058;2023-03-13T11:20:44;15.30;99.90
14786;DHT22;7484;49.906;9.058;2023-03-13T11:23:19;15.50;99.90
14786;DHT22;7484;49.906;9.058;2023-03-13T11:25:53;15.50;99.90
14786;DHT22;7484;49.906;9.058;2023-03-13T11:28:28;15.60;99.90
14786;DHT22;7484;49.906;9.058;2023-03-13T11:31:06;15.90;99.90
14786;DHT22;7484;49.906;9.058;2023-03-13T11:33:38;16.20;99.90
14786;DHT22;7484;49.906;9.058;2023-03-13T11:36:18;16.40;99.90
14786;DHT22;7484;49.906;9.058;2023-03-13T11:38:50;16.30;99.90
14786;DHT22;7484;49.906;9.058;2023-03-13T11:41:31;16.30;99.90
14786;DHT22;7484;49.906;9.058;2023-03-13T11:47:18;15.90;99.90
14786;DHT22;7484;49.906;9.058;2023-03-13T11:53:00;16.70;99.90
14786;DHT22;7484;49.906;9.058;2023-03-13T11:55:49;16.50;99.90
14786;DHT22;7484;49.906;9.058;2023-03-13T11:58:35;16.30;99.90
14786;DHT22;7484;49.906;9.058;2023-03-13T12:01:08;16.30;99.90
14786;DHT22;7484;49.906;9.058;2023-03-13T12:03:41;16.50;99.90
14786;DHT22;7484;49.906;9.058;2023-03-13T12:06:20;16.50;99.90
14786;DHT22;7484;49.906;9.058;2023-03-13T12:08:53;16.40;99.90
14786;DHT22;7484;49.906;9.058;2023-03-13T12:11:23;16.40;99.90
14786;DHT22;7484;49.906;9.058;2023-03-13T12:13:56;16.60;99.90
14786;DHT22;7484;49.906;9.058;2023-03-13T12:16:30;16.70;99.90
14786;DHT22;7484;49.906;9.058;2023-03-13T12:19:02;16.70;99.90
14786;DHT22;7484;49.906;9.058;2023-03-13T12:21:32;16.50;99.90
14786;DHT22;7484;49.906;9.058;2023-03-13T12:24:05;16.50;99.90
14786;DHT22;7484;49.906;9.058;2023-03-13T12:26:41;16.50;99.90
14786;DHT22;7484;49.906;9.058;2023-03-13T12:29:15;16.50;99.90
14786;DHT22;7484;49.906;9.058;2023-03-13T12:31:48;16.50;99.90
14786;DHT22;7484;49.906;9.058;2023-03-13T12:34:21;16.50;99.90
14786;DHT22;7484;49.906;9.058;2023-03-13T12:36:53;16.70;99.90
14786;DHT22;7484;49.906;9.058;2023-03-13T12:39:31;16.90;99.90
14786;DHT22;7484;49.906;9.058;2023-03-13T12:42:15;17.40;99.90
14786;DHT22;7484;49.906;9.058;2023-03-13T12:44:42;17.70;99.90
14786;DHT22;7484;49.906;9.058;2023-03-13T12:47:15;17.80;99.90
14786;DHT22;7484;49.906;9.058;2023-03-13T12:53:11;17.80;99.90
14786;DHT22;7484;49.906;9.058;2023-03-13T12:56:01;18.10;99.90
14786;DHT22;7484;49.906;9.058;2023-03-13T12:58:45;18.00;99.90
14786;DHT22;7484;49.906;9.058;2023-03-13T13:01:25;17.90;99.90
14786;DHT22;7484;49.906;9.058;2023-03-13T13:03:55;17.90;99.90
14786;DHT22;7484;49.906;9.058;2023-03-13T13:06:23;17.80;99.90
14786;DHT22;7484;49.906;9.058;2023-03-13T13:09:06;17.50;99.90
14786;DHT22;7484;49.906;9.058;2023-03-13T13:11:56;17.40;99.90
14786;DHT22;7484;49.906;9.058;2023-03-13T13:15:01;17.20;99.90
14786;DHT22;7484;49.906;9.058;2023-03-13T13:17:52;17.20;99.90
14786;DHT22;7484;49.906;9.058;2023-03-13T13:20:38;17.20;99.90
14786;DHT22;7484;49.906;9.058;2023-03-13T13:23:26;17.40;99.90
14786;DHT22;7484;49.906;9.058;2023-03-13T13:32:37;17.40;99.90
14786;DHT22;7484;49.906;9.058;2023-03-13T13:35:17;17.60;99.90
14786;DHT22;7484;49.906;9.058;2023-03-13T13:37:45;17.60;99.90
14786;DHT22;7484;49.906;9.058;2023-03-13T13:40:25;17.60;99.90
14786;DHT22;7484;49.906;9.058;2023-03-13T13:42:54;17.70;99.90
14786;DHT22;7484;49.906;9.058;2023-03-13T13:45:24;17.70;99.90
14786;DHT22;7484;49.906;9.058;2023-03-13T13:48:26;18.00;99.90
14786;DHT22;7484;49.906;9.058;2023-03-13T13:51:24;18.70;99.90
14786;DHT22;7484;49.906;9.058;2023-03-13T13:53:53;19.40;99.90
14786;DHT22;7484;49.906;9.058;2023-03-13T13:56:39;19.60;99.90
14786;DHT22;7484;49.906;9.058;2023-03-13T13:59:24;20.00;99.90
14786;DHT22;7484;49.906;9.058;2023-03-13T14:02:19;19.80;99.90
14786;DHT22;7484;49.906;9.058;2023-03-13T14:04:51;19.30;99.90
14786;DHT22;7484;49.906;9.058;2023-03-13T14:07:24;19.40;99.90
14786;DHT22;7484;49.906;9.058;2023-03-13T14:09:59;19.60;99.90
14786;DHT22;7484;49.906;9.058;2023-03-13T14:12:29;19.30;99.90
14786;DHT22;7484;49.906;9.058;2023-03-13T14:15:07;18.90;99.90
14786;DHT22;7484;49.906;9.058;2023-03-13T14:17:38;18.60;99.90
14786;DHT22;7484;49.906;9.058;2023-03-13T14:20:21;18.50;99.90
14786;DHT22;7484;49.906;9.058;2023-03-13T14:22:49;18.40;99.90
14786;DHT22;7484;49.906;9.058;2023-03-13T14:25:18;18.40;99.90
14786;DHT22;7484;49.906;9.058;2023-03-13T14:27:46;18.70;99.90
14786;DHT22;7484;49.906;9.058;2023-03-13T14:30:15;18.70;99.90
14786;DHT22;7484;49.906;9.058;2023-03-13T14:32:42;18.60;99.90
14786;DHT22;7484;49.906;9.058;2023-03-13T14:35:10;18.70;99.90
14786;DHT22;7484;49.906;9.058;2023-03-13T14:37:43;18.60;99.90
14786;DHT22;7484;49.906;9.058;2023-03-13T14:40:19;18.50;99.90
14786;DHT22;7484;49.906;9.058;2023-03-13T14:42:47;18.40;99.90
14786;DHT22;7484;49.906;9.058;2023-03-13T14:45:21;18.30;99.90
14786;DHT22;7484;49.906;9.058;2023-03-13T14:47:49;18.30;99.90
14786;DHT22;7484;49.906;9.058;2023-03-13T14:50:17;18.40;99.90
14786;DHT22;7484;49.906;9.058;2023-03-13T14:52:48;18.50;99.90
14786;DHT22;7484;49.906;9.058;2023-03-13T14:55:28;18.70;99.90
14786;DHT22;7484;49.906;9.058;2023-03-13T14:57:58;18.70;99.90
14786;DHT22;7484;49.906;9.058;2023-03-13T15:00:35;19.10;99.90
14786;DHT22;7484;49.906;9.058;2023-03-13T15:03:22;19.70;99.90
14786;DHT22;7484;49.906;9.058;2023-03-13T15:06:02;20.00;99.90
14786;DHT22;7484;49.906;9.058;2023-03-13T15:08:31;20.20;99.90
14786;DHT22;7484;49.906;9.058;2023-03-13T15:10:58;20.30;99.90
14786;DHT22;7484;49.906;9.058;2023-03-13T15:13:32;20.60;99.90
14786;DHT22;7484;49.906;9.058;2023-03-13T15:16:01;20.60;99.90
14786;DHT22;7484;49.906;9.058;2023-03-13T15:18:29;20.60;99.90
14786;DHT22;7484;49.906;9.058;2023-03-13T15:20:57;20.10;99.90
14786;DHT22;7484;49.906;9.058;2023-03-13T15:23:25;19.70;99.90
14786;DHT22;7484;49.906;9.058;2023-03-13T15:25:54;19.50;99.90
14786;DHT22;7484;49.906;9.058;2023-03-13T15:28:22;19.20;99.90
14786;DHT22;7484;49.906;9.058;2023-03-13T15:30:50;19.00;99.90
14786;DHT22;7484;49.906;9.058;2023-03-13T15:33:19;18.80;99.90
14786;DHT22;7484;49.906;9.058;2023-03-13T15:35:48;18.60;99.90
14786;DHT22;7484;49.906;9.058;2023-03-13T15:38:17;18.60;99.90
14786;DHT22;7484;49.906;9.058;2023-03-13T15:40:44;18.50;99.90
14786;DHT22;7484;49.906;9.058;2023-03-13T15:43:13;18.50;99.90
14786;DHT22;7484;49.906;9.058;2023-03-13T15:45:42;18.50;99.90
14786;DHT22;7484;49.906;9.058;2023-03-13T15:48:14;18.50;99.90
14786;DHT22;7484;49.906;9.058;2023-03-13T15:50:41;18.50;99.90
14786;DHT22;7484;49.906;9.058;2023-03-13T15:53:16;18.40;99.90
14786;DHT22;7484;49.906;9.058;2023-03-13T15:55:44;18.30;99.90
14786;DHT22;7484;49.906;9.058;2023-03-13T15:58:12;18.20;99.90
14786;DHT22;7484;49.906;9.058;2023-03-13T16:00:40;18.20;99.90
14786;DHT22;7484;49.906;9.058;2023-03-13T16:03:10;18.10;99.90
14786;DHT22;7484;49.906;9.058;2023-03-13T16:05:39;18.10;99.90
14786;DHT22;7484;49.906;9.058;2023-03-13T16:08:06;16.80;99.90
14786;DHT22;7484;49.906;9.058;2023-03-13T16:59:23;11.90;99.90
14786;DHT22;7484;49.906;9.058;2023-03-13T17:01:50;12.50;99.90
14786;DHT22;7484;49.906;9.058;2023-03-13T17:04:16;12.60;99.90
14786;DHT22;7484;49.906;9.058;2023-03-13T17:06:43;12.50;99.90
14786;DHT22;7484;49.906;9.058;2023-03-13T17:09:13;12.50;99.90
14786;DHT22;7484;49.906;9.058;2023-03-13T17:11:40;12.50;99.90
14786;DHT22;7484;49.906;9.058;2023-03-13T17:14:07;12.60;99.90
14786;DHT22;7484;49.906;9.058;2023-03-13T17:16:37;12.70;99.90
14786;DHT22;7484;49.906;9.058;2023-03-13T17:19:04;12.80;99.90
14786;DHT22;7484;49.906;9.058;2023-03-13T17:21:32;12.80;99.90